createdAt,value
2023-03-29T00:02:14.530Z,8.35
2023-03-29T00:04:44.131Z,7.97
2023-03-29T00:07:16.181Z,9.05
2023-03-29T00:09:43.194Z,11.13
2023-03-29T00:12:11.669Z,8.65
2023-03-29T00:14:38.617Z,9.85
2023-03-29T00:17:06.477Z,10.45
2023-03-29T00:19:35.865Z,9.07
2023-03-29T00:22:05.996Z,12.98
2023-03-29T00:24:33.135Z,10.35
2023-03-29T00:26:59.994Z,9.98
2023-03-29T00:29:27.044Z,9.38
2023-03-29T00:31:56.068Z,11.25
2023-03-29T00:34:24.401Z,7.40
2023-03-29T00:36:53.109Z,7.55
2023-03-29T00:39:21.211Z,6.22
2023-03-29T00:41:49.926Z,7.22
2023-03-29T00:44:54.094Z,6.15
2023-03-29T00:47:31.401Z,8.57
2023-03-29T00:50:09.876Z,5.95
2023-03-29T00:52:38.921Z,6.13
2023-03-29T00:55:11.354Z,5.53
2023-03-29T00:57:40.718Z,7.93
2023-03-29T01:00:10.247Z,8.15
2023-03-29T01:02:40.047Z,5.22
2023-03-29T01:05:18.564Z,6.88
2023-03-29T01:07:58.254Z,8.85
2023-03-29T01:10:42.860Z,7.53
2023-03-29T01:13:22.464Z,6.35
2023-03-29T01:15:53.474Z,9.13
2023-03-29T01:18:23.252Z,6.35
2023-03-29T01:20:55.635Z,10.18
2023-03-29T01:23:46.018Z,6.22
2023-03-29T01:26:54.941Z,8.73
2023-03-29T01:29:36.452Z,11.75
2023-03-29T01:32:14.632Z,5.80
2023-03-29T01:35:02.730Z,7.50
2023-03-29T01:37:39.438Z,3.97
2023-03-29T01:40:07.068Z,7.18
2023-03-29T01:42:42.678Z,6.20
2023-03-29T01:45:39.178Z,6.72
2023-03-29T01:48:29.918Z,5.85
2023-03-29T01:51:28.917Z,6.93
2023-03-29T01:54:01.159Z,5.38
2023-03-29T01:56:31.047Z,7.72
2023-03-29T01:59:04.115Z,5.75
2023-03-29T02:01:38.586Z,5.95
2023-03-29T02:04:11.209Z,7.43
2023-03-29T02:06:39.816Z,4.57
2023-03-29T02:09:09.166Z,7.88
2023-03-29T02:11:46.232Z,5.40
2023-03-29T02:14:14.013Z,9.00
2023-03-29T02:16:50.432Z,11.48
2023-03-29T02:19:18.939Z,12.88
2023-03-29T02:22:11.055Z,6.35
2023-03-29T02:24:45.069Z,7.03
2023-03-29T02:27:15.708Z,7.30
2023-03-29T02:29:42.733Z,5.45
2023-03-29T02:32:19.751Z,6.03
2023-03-29T02:34:58.848Z,6.63
2023-03-29T02:37:30.382Z,8.75
2023-03-29T02:39:59.135Z,8.02
2023-03-29T02:42:26.730Z,7.80
2023-03-29T02:44:59.021Z,6.15
2023-03-29T02:47:33.891Z,6.90
2023-03-29T02:50:03.334Z,6.10
2023-03-29T02:52:39.377Z,10.27
2023-03-29T02:55:11.508Z,10.55
2023-03-29T02:57:39.698Z,8.15
2023-03-29T03:00:10.217Z,9.10
2023-03-29T03:02:38.125Z,8.55
2023-03-29T03:05:06.534Z,9.48
2023-03-29T03:07:33.835Z,8.82
2023-03-29T03:10:01.037Z,6.03
2023-03-29T03:12:27.866Z,9.30
2023-03-29T03:14:54.715Z,15.88
2023-03-29T03:17:23.201Z,11.73
2023-03-29T03:19:50.978Z,8.93
2023-03-29T03:22:18.463Z,9.32
2023-03-29T03:24:46.184Z,6.85
2023-03-29T03:27:13.641Z,7.43
2023-03-29T03:29:41.643Z,9.93
2023-03-29T03:32:08.791Z,7.80
2023-03-29T03:34:36.028Z,8.48
2023-03-29T03:37:02.977Z,7.05
2023-03-29T03:39:30.069Z,8.45
2023-03-29T03:41:57.301Z,11.10
2023-03-29T03:44:24.413Z,19.80
2023-03-29T03:46:51.492Z,24.92
2023-03-29T03:49:19.334Z,41.28
2023-03-29T03:51:46.373Z,21.70
2023-03-29T03:54:13.333Z,17.55
2023-03-29T03:56:40.252Z,8.73
2023-03-29T03:59:07.344Z,11.32
2023-03-29T04:01:35.464Z,13.38
2023-03-29T04:04:03.227Z,11.90
2023-03-29T04:06:30.748Z,10.68
2023-03-29T04:08:58.049Z,7.88
2023-03-29T04:11:25.783Z,11.48
2023-03-29T04:13:52.736Z,10.77
2023-03-29T04:16:19.650Z,9.18
2023-03-29T04:18:47.001Z,7.38
2023-03-29T04:21:14.014Z,12.20
2023-03-29T04:23:43.135Z,9.95
2023-03-29T04:26:10.134Z,14.43
2023-03-29T04:28:37.113Z,7.03
2023-03-29T04:31:04.386Z,9.55
2023-03-29T04:33:31.718Z,9.10
2023-03-29T04:35:59.243Z,12.10
2023-03-29T04:38:26.896Z,9.93
2023-03-29T04:40:55.800Z,17.23
2023-03-29T04:43:23.718Z,14.38
2023-03-29T04:45:51.052Z,12.88
2023-03-29T04:48:17.907Z,14.05
2023-03-29T04:50:47.637Z,12.15
2023-03-29T04:53:14.914Z,6.63
2023-03-29T04:55:41.981Z,8.88
2023-03-29T04:58:08.948Z,8.52
2023-03-29T05:00:35.870Z,8.73
2023-03-29T05:03:04.460Z,12.85
2023-03-29T05:05:31.623Z,8.65
2023-03-29T05:07:58.715Z,9.43
2023-03-29T05:10:25.923Z,10.20
2023-03-29T05:12:54.384Z,8.98
2023-03-29T05:15:22.139Z,17.60
2023-03-29T05:17:49.778Z,11.70
2023-03-29T05:20:17.619Z,10.05
2023-03-29T05:22:44.527Z,10.75
2023-03-29T05:25:11.892Z,11.23
2023-03-29T05:27:38.753Z,12.70
2023-03-29T05:30:06.356Z,17.38
2023-03-29T05:32:35.016Z,12.88
2023-03-29T05:35:01.994Z,11.15
2023-03-29T05:37:28.812Z,12.75
2023-03-29T05:40:05.965Z,10.55
2023-03-29T05:42:33.552Z,7.90
2023-03-29T05:45:00.852Z,7.93
2023-03-29T05:47:29.268Z,11.07
2023-03-29T05:49:57.316Z,8.95
2023-03-29T05:52:24.879Z,10.73
2023-03-29T05:54:51.855Z,11.68
2023-03-29T05:57:19.128Z,14.60
2023-03-29T05:59:46.993Z,11.93
2023-03-29T06:02:16.093Z,19.00
2023-03-29T06:04:43.297Z,17.42
2023-03-29T06:07:12.348Z,16.88
2023-03-29T06:09:39.890Z,16.27
2023-03-29T06:12:08.391Z,14.48
2023-03-29T06:14:36.477Z,13.55
2023-03-29T06:17:03.856Z,16.85
2023-03-29T06:19:30.994Z,11.73
2023-03-29T06:21:57.914Z,15.20
2023-03-29T06:24:25.234Z,9.52
2023-03-29T06:26:52.559Z,11.73
2023-03-29T06:29:19.730Z,9.98
2023-03-29T06:31:47.084Z,11.63
2023-03-29T06:34:13.968Z,9.60
2023-03-29T06:36:40.832Z,9.30
2023-03-29T06:39:08.094Z,10.00
2023-03-29T06:41:35.072Z,9.73
2023-03-29T06:44:02.269Z,9.70
2023-03-29T06:46:29.552Z,8.63
2023-03-29T06:48:56.972Z,12.57
2023-03-29T06:51:23.948Z,9.68
2023-03-29T06:53:50.927Z,9.85
2023-03-29T06:56:18.185Z,8.63
2023-03-29T06:58:45.095Z,10.65
2023-03-29T07:01:12.707Z,11.05
2023-03-29T07:03:40.178Z,10.43
2023-03-29T07:06:10.176Z,10.52
2023-03-29T07:08:43.523Z,10.73
2023-03-29T07:11:12.650Z,8.50
2023-03-29T07:13:42.598Z,8.52
2023-03-29T07:16:14.470Z,9.85
2023-03-29T07:18:45.146Z,8.57
2023-03-29T07:21:13.416Z,12.80
2023-03-29T07:23:40.851Z,11.77
2023-03-29T07:26:08.169Z,14.80
2023-03-29T07:28:37.577Z,12.13
2023-03-29T07:31:11.128Z,10.80
2023-03-29T07:33:39.359Z,9.30
2023-03-29T07:36:06.968Z,9.63
2023-03-29T07:38:34.239Z,12.85
2023-03-29T07:41:07.062Z,12.48
2023-03-29T07:43:34.501Z,12.90
2023-03-29T07:46:03.988Z,16.02
2023-03-29T07:48:32.468Z,13.63
2023-03-29T07:50:59.838Z,12.05
2023-03-29T07:53:27.168Z,10.10
2023-03-29T07:55:54.881Z,15.07
2023-03-29T07:58:21.930Z,13.52
2023-03-29T08:00:49.303Z,11.80
2023-03-29T08:03:17.799Z,12.20
2023-03-29T08:05:45.187Z,14.95
2023-03-29T08:08:14.273Z,11.98
2023-03-29T08:11:26.448Z,10.18
2023-03-29T08:13:53.646Z,13.10
2023-03-29T08:16:20.729Z,9.57
2023-03-29T08:18:47.629Z,10.73
2023-03-29T08:21:14.942Z,19.73
2023-03-29T08:23:42.232Z,11.52
2023-03-29T08:26:09.662Z,13.15
2023-03-29T08:28:36.573Z,15.90
2023-03-29T08:31:03.870Z,13.45
2023-03-29T08:33:31.219Z,11.23
2023-03-29T08:35:58.115Z,13.52
2023-03-29T08:38:25.012Z,14.45
2023-03-29T08:40:52.288Z,11.55
2023-03-29T08:43:27.202Z,10.60
2023-03-29T08:46:15.957Z,12.73
2023-03-29T08:48:50.395Z,13.85
2023-03-29T08:51:41.103Z,11.57
2023-03-29T08:54:21.877Z,11.45
2023-03-29T08:56:50.645Z,12.70
2023-03-29T08:59:24.952Z,15.20
2023-03-29T09:01:55.885Z,10.75
2023-03-29T09:04:27.783Z,11.13
2023-03-29T09:06:55.210Z,13.82
2023-03-29T09:09:24.353Z,14.98
2023-03-29T09:12:08.741Z,11.70
2023-03-29T09:14:57.200Z,12.52
2023-03-29T09:17:53.669Z,11.93
2023-03-29T09:20:42.258Z,12.70
2023-03-29T09:23:41.612Z,14.07
2023-03-29T09:26:23.768Z,9.38
2023-03-29T09:28:53.730Z,14.73
2023-03-29T09:31:37.425Z,11.00
2023-03-29T09:34:10.527Z,12.32
2023-03-29T09:36:57.244Z,12.60
2023-03-29T09:39:27.540Z,12.27
2023-03-29T09:42:04.263Z,11.65
2023-03-29T09:44:44.066Z,12.35
2023-03-29T09:47:33.004Z,12.68
2023-03-29T09:50:05.137Z,11.68
2023-03-29T09:52:32.645Z,13.93
2023-03-29T09:55:03.817Z,13.05
2023-03-29T09:57:31.420Z,9.25
2023-03-29T10:00:01.965Z,10.70
2023-03-29T10:02:31.750Z,12.57
2023-03-29T10:05:01.034Z,14.95
2023-03-29T10:07:40.410Z,11.95
2023-03-29T10:10:10.580Z,12.13
2023-03-29T10:12:37.628Z,12.23
2023-03-29T10:15:06.213Z,15.52
2023-03-29T10:17:40.898Z,9.02
2023-03-29T10:20:11.808Z,11.57
2023-03-29T10:22:41.040Z,16.77
2023-03-29T10:25:17.227Z,8.63
2023-03-29T10:27:46.681Z,10.50
2023-03-29T10:30:22.779Z,10.25
2023-03-29T10:32:58.045Z,14.50
2023-03-29T10:35:40.524Z,9.35
2023-03-29T10:38:13.467Z,11.23
2023-03-29T10:40:50.731Z,7.65
2023-03-29T10:43:17.611Z,20.13
2023-03-29T10:45:47.951Z,8.18
2023-03-29T10:48:16.623Z,8.30
2023-03-29T10:50:49.990Z,6.60
2023-03-29T10:53:32.758Z,9.30
2023-03-29T10:56:13.292Z,8.18
2023-03-29T10:59:16.281Z,6.90
2023-03-29T11:02:13.386Z,2.92
2023-03-29T11:04:56.737Z,5.15
2023-03-29T11:07:38.867Z,5.03
2023-03-29T11:10:44.912Z,4.90
2023-03-29T11:13:26.091Z,3.22
2023-03-29T11:16:17.970Z,4.68
2023-03-29T11:19:11.233Z,5.50
2023-03-29T11:21:59.576Z,4.75
2023-03-29T11:24:33.835Z,4.18
2023-03-29T11:27:31.298Z,7.22
2023-03-29T11:30:08.874Z,7.50
2023-03-29T11:32:47.668Z,6.60
2023-03-29T11:35:50.754Z,5.32
2023-03-29T11:38:28.133Z,5.20
2023-03-29T11:41:17.727Z,7.22
2023-03-29T11:43:49.864Z,9.48
2023-03-29T11:46:29.615Z,7.07
2023-03-29T11:49:14.067Z,5.03
2023-03-29T11:51:50.954Z,8.13
2023-03-29T11:54:46.283Z,8.45
2023-03-29T11:57:20.025Z,6.82
2023-03-29T12:00:08.761Z,5.20
2023-03-29T12:02:56.000Z,4.53
2023-03-29T12:05:34.043Z,4.47
2023-03-29T12:08:09.338Z,4.45
2023-03-29T12:10:43.808Z,5.93
2023-03-29T12:13:33.613Z,4.90
2023-03-29T12:16:22.016Z,4.78
2023-03-29T12:18:53.938Z,5.25
2023-03-29T12:21:23.563Z,5.00
2023-03-29T12:23:51.976Z,10.85
2023-03-29T12:26:40.614Z,32.53
2023-03-29T12:29:22.643Z,6.18
2023-03-29T12:31:55.184Z,11.63
2023-03-29T12:34:48.121Z,13.05
2023-03-29T12:37:25.113Z,11.40
2023-03-29T12:39:53.175Z,9.88
2023-03-29T12:42:23.176Z,12.38
2023-03-29T12:45:00.792Z,8.27
2023-03-29T12:47:33.959Z,7.22
2023-03-29T12:50:03.972Z,10.43
2023-03-29T12:52:34.749Z,9.85
2023-03-29T12:55:17.020Z,8.52
2023-03-29T12:58:02.207Z,10.13
2023-03-29T13:00:32.749Z,8.00
2023-03-29T13:03:27.688Z,6.38
2023-03-29T13:06:05.209Z,12.15
2023-03-29T13:08:42.340Z,7.63
2023-03-29T13:11:25.461Z,6.63
2023-03-29T13:13:52.488Z,8.10
2023-03-29T13:16:31.357Z,10.02
2023-03-29T13:19:30.067Z,9.70
2023-03-29T13:22:02.994Z,11.35
2023-03-29T13:25:06.066Z,10.82
2023-03-29T13:28:01.349Z,10.10
2023-03-29T13:30:57.458Z,11.52
2023-03-29T13:33:43.585Z,13.60
2023-03-29T13:36:42.472Z,10.70
2023-03-29T13:39:18.557Z,11.73
2023-03-29T13:41:53.168Z,13.95
2023-03-29T13:44:22.981Z,10.75
2023-03-29T13:47:01.640Z,9.23
2023-03-29T13:49:31.807Z,12.75
2023-03-29T13:52:33.433Z,12.60
2023-03-29T13:55:27.036Z,16.75
2023-03-29T13:58:07.404Z,12.77
2023-03-29T14:00:40.112Z,14.48
2023-03-29T14:03:14.486Z,14.43
2023-03-29T14:05:57.654Z,14.00
2023-03-29T14:08:30.391Z,12.57
2023-03-29T14:11:02.786Z,14.10
2023-03-29T14:13:33.785Z,12.30
2023-03-29T14:16:11.497Z,14.05
2023-03-29T14:18:41.299Z,14.32
2023-03-29T14:21:11.623Z,20.30
2023-03-29T14:23:45.480Z,13.88
2023-03-29T14:26:21.856Z,12.02
2023-03-29T14:28:54.025Z,13.27
2023-03-29T14:31:23.734Z,16.42
2023-03-29T14:33:57.912Z,12.88
2023-03-29T14:36:26.681Z,13.32
2023-03-29T14:39:32.235Z,16.52
2023-03-29T14:41:59.916Z,18.60
2023-03-29T14:44:33.135Z,14.98
2023-03-29T14:47:01.921Z,14.63
2023-03-29T14:49:29.332Z,12.32
2023-03-29T14:51:57.121Z,13.00
2023-03-29T14:54:32.792Z,13.27
2023-03-29T14:57:03.614Z,15.73
2023-03-29T14:59:37.361Z,15.98
2023-03-29T15:02:22.032Z,15.45
2023-03-29T15:04:56.279Z,20.70
2023-03-29T15:07:25.162Z,14.60
2023-03-29T15:09:53.477Z,17.63
2023-03-29T15:12:20.905Z,19.60
2023-03-29T15:14:51.313Z,15.18
2023-03-29T15:17:36.031Z,17.33
2023-03-29T15:20:23.220Z,15.95
2023-03-29T15:22:58.843Z,13.77
2023-03-29T15:25:37.992Z,12.95
2023-03-29T15:28:05.214Z,13.90
2023-03-29T15:30:34.894Z,20.10
2023-03-29T15:33:14.817Z,16.17
2023-03-29T15:35:46.909Z,18.10
2023-03-29T15:38:14.269Z,15.00
2023-03-29T15:40:41.506Z,17.88
2023-03-29T15:43:11.753Z,15.85
2023-03-29T15:45:39.009Z,20.42
2023-03-29T15:48:16.682Z,18.70
2023-03-29T15:50:45.313Z,16.70
2023-03-29T15:53:15.583Z,20.92
2023-03-29T15:55:47.669Z,19.05
2023-03-29T15:58:26.292Z,17.88
2023-03-29T16:01:34.445Z,15.25
2023-03-29T16:04:05.484Z,16.48
2023-03-29T16:06:33.527Z,19.50
2023-03-29T16:09:00.661Z,19.92
2023-03-29T16:11:28.693Z,17.15
2023-03-29T16:13:56.753Z,18.52
2023-03-29T16:16:24.441Z,16.02
2023-03-29T16:18:51.503Z,19.20
2023-03-29T16:21:22.143Z,18.88
2023-03-29T16:23:49.200Z,13.52
2023-03-29T16:26:17.048Z,17.77
2023-03-29T16:28:44.556Z,12.35
2023-03-29T16:31:15.054Z,17.30
2023-03-29T16:33:42.269Z,17.58
2023-03-29T16:36:10.667Z,16.70
2023-03-29T16:38:37.611Z,15.25
2023-03-29T16:41:04.985Z,14.77
2023-03-29T16:43:32.495Z,16.75
2023-03-29T16:45:59.446Z,9.75
2023-03-29T16:48:27.109Z,15.25
2023-03-29T16:50:54.053Z,20.83
2023-03-29T16:53:21.714Z,14.02
2023-03-29T16:55:50.205Z,20.83
2023-03-29T16:58:17.377Z,13.48
2023-03-29T17:00:47.855Z,15.32
2023-03-29T17:03:15.855Z,15.93
2023-03-29T17:05:53.295Z,15.95
2023-03-29T17:08:22.079Z,14.73
2023-03-29T17:10:54.078Z,17.98
2023-03-29T17:13:23.872Z,18.73
2023-03-29T17:15:52.475Z,18.10
2023-03-29T17:18:20.304Z,19.67
2023-03-29T17:20:47.659Z,17.35
2023-03-29T17:23:14.528Z,14.73
2023-03-29T17:25:43.178Z,14.25
2023-03-29T17:28:11.107Z,13.38
2023-03-29T17:30:38.218Z,20.98
2023-03-29T17:33:06.222Z,14.95
2023-03-29T17:35:33.400Z,16.63
2023-03-29T17:38:01.409Z,12.90
2023-03-29T17:40:28.494Z,18.02
2023-03-29T17:42:55.407Z,13.45
2023-03-29T17:45:22.628Z,16.13
2023-03-29T17:47:49.831Z,18.83
2023-03-29T17:50:17.574Z,12.32
2023-03-29T17:52:44.586Z,10.80
2023-03-29T17:55:13.966Z,12.25
2023-03-29T17:57:41.669Z,10.77
2023-03-29T18:00:13.508Z,10.65
2023-03-29T18:02:41.302Z,13.90
2023-03-29T18:05:09.495Z,11.43
2023-03-29T18:07:36.981Z,14.82
2023-03-29T18:10:04.779Z,12.60
2023-03-29T18:12:33.532Z,10.85
2023-03-29T18:15:01.177Z,12.10
2023-03-29T18:17:28.608Z,14.13
2023-03-29T18:19:55.612Z,15.35
2023-03-29T18:22:25.826Z,9.48
2023-03-29T18:24:52.799Z,11.10
2023-03-29T18:27:20.625Z,11.38
2023-03-29T18:29:47.499Z,11.63
2023-03-29T18:32:14.621Z,9.80
2023-03-29T18:34:41.755Z,12.65
2023-03-29T18:37:15.137Z,10.13
2023-03-29T18:39:43.150Z,13.95
2023-03-29T18:42:12.162Z,10.45
2023-03-29T18:44:40.692Z,11.48
2023-03-29T18:47:08.351Z,7.20
2023-03-29T18:49:36.716Z,15.38
2023-03-29T18:52:04.934Z,7.18
2023-03-29T18:54:32.051Z,15.65
2023-03-29T18:57:00.542Z,11.82
2023-03-29T18:59:29.115Z,13.63
2023-03-29T19:01:56.432Z,10.10
2023-03-29T19:04:25.690Z,13.43
2023-03-29T19:06:55.715Z,8.75
2023-03-29T19:09:23.640Z,8.77
2023-03-29T19:11:52.483Z,8.77
2023-03-29T19:14:23.605Z,12.40
2023-03-29T19:16:51.753Z,8.15
2023-03-29T19:19:19.772Z,7.93
2023-03-29T19:21:47.667Z,8.48
2023-03-29T19:24:15.386Z,9.45
2023-03-29T19:26:44.508Z,9.15
2023-03-29T19:29:11.878Z,7.75
2023-03-29T19:31:39.045Z,10.60
2023-03-29T19:34:07.137Z,13.20
2023-03-29T19:36:34.222Z,5.57
2023-03-29T19:39:01.401Z,10.50
2023-03-29T19:41:28.517Z,9.52
2023-03-29T19:43:55.521Z,5.35
2023-03-29T19:46:23.187Z,12.75
2023-03-29T19:48:51.803Z,8.15
2023-03-29T19:51:19.556Z,6.25
2023-03-29T19:53:47.418Z,6.10
2023-03-29T19:56:16.042Z,8.93
2023-03-29T19:58:43.156Z,8.90
2023-03-29T20:01:10.345Z,6.25
2023-03-29T20:03:37.284Z,10.40
2023-03-29T20:06:06.965Z,8.25
2023-03-29T20:08:36.290Z,8.40
2023-03-29T20:11:05.266Z,7.82
2023-03-29T20:13:38.699Z,8.57
2023-03-29T20:16:14.519Z,8.48
2023-03-29T20:18:41.931Z,10.82
2023-03-29T20:21:09.717Z,9.13
2023-03-29T20:23:36.898Z,12.52
2023-03-29T20:26:03.933Z,11.90
2023-03-29T20:28:34.256Z,11.13
2023-03-29T20:31:06.348Z,11.45
2023-03-29T20:33:33.442Z,12.43
2023-03-29T20:36:00.549Z,9.35
2023-03-29T20:38:27.497Z,6.75
2023-03-29T20:40:55.409Z,8.52
2023-03-29T20:43:22.460Z,9.85
2023-03-29T20:45:53.923Z,9.00
2023-03-29T20:48:30.428Z,10.63
2023-03-29T20:50:57.791Z,9.50
2023-03-29T20:53:25.235Z,7.68
2023-03-29T20:55:52.120Z,8.60
2023-03-29T20:58:19.132Z,10.75
2023-03-29T21:00:48.416Z,8.63
2023-03-29T21:03:15.416Z,8.13
2023-03-29T21:05:43.531Z,8.65
2023-03-29T21:08:10.869Z,8.07
2023-03-29T21:10:39.029Z,7.43
2023-03-29T21:13:05.973Z,10.60
2023-03-29T21:15:33.644Z,10.30
2023-03-29T21:18:00.655Z,8.15
2023-03-29T21:20:27.727Z,7.03
2023-03-29T21:22:54.821Z,6.65
2023-03-29T21:25:24.458Z,6.72
2023-03-29T21:27:51.374Z,7.72
2023-03-29T21:30:18.498Z,9.68
2023-03-29T21:32:45.696Z,7.25
2023-03-29T21:35:13.139Z,6.40
2023-03-29T21:37:40.055Z,8.48
2023-03-29T21:40:09.197Z,7.88
2023-03-29T21:42:36.519Z,8.15
2023-03-29T21:45:04.127Z,7.45
2023-03-29T21:47:31.504Z,10.98
2023-03-29T21:49:58.558Z,8.90
2023-03-29T21:52:25.722Z,9.82
2023-03-29T21:54:52.703Z,9.18
2023-03-29T21:57:19.740Z,6.97
2023-03-29T21:59:49.137Z,6.38
2023-03-29T22:02:16.122Z,6.72
2023-03-29T22:04:43.045Z,5.32
2023-03-29T22:07:10.812Z,8.98
2023-03-29T22:09:41.298Z,9.57
2023-03-29T22:12:10.041Z,6.45
2023-03-29T22:14:37.325Z,10.65
2023-03-29T22:17:09.196Z,7.80
2023-03-29T22:19:39.699Z,6.28
2023-03-29T22:22:14.008Z,7.47
2023-03-29T22:24:42.073Z,6.45
2023-03-29T22:27:10.582Z,6.00
2023-03-29T22:29:37.648Z,7.65
2023-03-29T22:32:06.150Z,10.32
2023-03-29T22:34:33.280Z,4.63
2023-03-29T22:37:00.271Z,10.30
2023-03-29T22:39:27.496Z,6.55
2023-03-29T22:41:54.577Z,4.93
2023-03-29T22:44:21.687Z,8.68
2023-03-29T22:46:48.507Z,9.05
2023-03-29T22:49:15.330Z,5.53
2023-03-29T22:51:42.152Z,6.38
2023-03-29T22:54:09.129Z,10.02
2023-03-29T22:56:36.044Z,8.20
2023-03-29T22:59:02.997Z,8.07
2023-03-29T23:01:30.043Z,6.18
2023-03-29T23:03:57.174Z,7.47
2023-03-29T23:06:25.313Z,6.38
2023-03-29T23:08:52.380Z,6.72
2023-03-29T23:11:19.667Z,7.47
2023-03-29T23:13:49.028Z,8.65
2023-03-29T23:16:16.601Z,6.63
2023-03-29T23:18:43.572Z,11.15
2023-03-29T23:21:10.513Z,4.90
2023-03-29T23:23:37.500Z,7.22
2023-03-29T23:26:05.538Z,5.50
2023-03-29T23:28:34.672Z,4.50
2023-03-29T23:31:11.684Z,6.80
2023-03-29T23:33:43.171Z,5.53
2023-03-29T23:36:13.141Z,6.85
2023-03-29T23:38:43.059Z,7.97
2023-03-29T23:41:12.921Z,4.78
2023-03-29T23:43:42.011Z,7.22
2023-03-29T23:46:15.487Z,8.75
2023-03-29T23:48:51.817Z,4.30
2023-03-29T23:51:34.482Z,7.28
2023-03-29T23:54:02.332Z,8.48
2023-03-29T23:56:29.123Z,5.72
2023-03-29T23:58:56.244Z,5.50
